Spuigracht — PBBB — position and weather

sailwx.info

Track history (hours):
 
Tides and Currents Weather Stations Pressure Air Temp Water Temp Dewpoint Dewpoint Depression Visibility Wind Speed Wind Dir Waves Ship Positions

Spuigracht

Last reported at 2019-Jan-22 03:00 UTC. Time now 2019-Jan-22 07:08 UTC.
Position N 44°54' W 017°36'.

Length 173 m; beam 26 m.

Type: Pleasure craft. MMSI: 244444108.

Wind from 330 at 18 knots

Barometer 1028.6 mb
Air temperature 11.9 ° C
Visibility: greater than 10.8 NM
Dewpoint 7.8 ° C

Date/timePositionNaut miles runAvg speedWind from/ knotsBaromVisibWave heightAir tempDewpointWater temp
2019-Jan-22 03:00N 44°54' W 017°36'18315.3 330 / 181028.610.8 11.9 7.8
2019-Jan-21 15:00N 46°24' W 013°48'4113.8 270 / 251025.410.8 12.8 7.3
2019-Jan-21 12:00N 46°42' W 012°54'13314.7 240 / 131027.210.8 11.8 8.1
2019-Jan-21 03:00N 47°42' W 010°00'4414.7 330 / 81028.110.8 10.9 6.2
2019-Jan-21 00:00N 48°00' W 009°00'13014.4 360 / 211028.0 5.4 11.0 8.4
2019-Jan-20 15:00N 49°00' W 006°06'10215.5 360 / 171020.010.8 11.1 7.7
2019-Jan-20 08:26N 49°47' W 003°47'716.2
2019-Jan-20 07:59N 49°49' W 003°36'815.7
2019-Jan-20 07:31N 49°51' W 003°25'815.1
2019-Jan-20 07:01N 49°54' W 003°14'714.1
2019-Jan-20 06:29N 49°57' W 003°04'713.7
2019-Jan-20 06:00N 49°59' W 002°54'713.7
2019-Jan-20 05:28N 50°02' W 002°43'2514.4
2019-Jan-20 03:45N 50°10' W 002°07'415.7
2019-Jan-20 03:31N 50°12' W 002°02'816.2
2019-Jan-20 03:00N 50°15' W 001°50'816.8
2019-Jan-20 02:31N 50°20' W 001°39'2817.8
2019-Jan-20 00:55N 50°34' W 001°00'716.4
2019-Jan-20 00:30N 50°40' W 000°58'611.7
2019-Jan-20 00:01N 50°44' W 001°05'713.1
2019-Jan-19 23:30N 50°46' W 001°15'5 9.5
2019-Jan-19 23:00N 50°50' W 001°19'510.4
2019-Jan-19 22:31N 50°54' W 001°25'1 1.5
2019-Jan-19 21:57N 50°54' W 001°26'0 0.0
2019-Jan-19 21:27N 50°54' W 001°26'0 0.0
2019-Jan-19 17:11N 50°54' W 001°26'0 0.0
2019-Jan-19 15:20N 50°54' W 001°26'0 0.0
2019-Jan-19 07:41N 50°54' W 001°26'0 0.0
2019-Jan-19 06:38N 50°54' W 001°26'0 0.0
2019-Jan-19 02:38N 50°54' W 001°26'0 0.0
2019-Jan-19 02:02N 50°54' W 001°26'0 0.0
2019-Jan-19 01:52N 50°54' W 001°26'1 2.7
2019-Jan-19 01:30N 50°54' W 001°25'4 7.8
2019-Jan-19 01:00N 50°51' W 001°20'4 9.0
2019-Jan-19 00:30N 50°47' W 001°18'815.7
2019-Jan-19 00:00N 50°45' W 001°06'713.9
2019-Jan-18 23:31N 50°40' W 000°58'3 6.6
2019-Jan-18 23:00N 50°38' W 000°55'4 8.6
2019-Jan-18 22:31N 50°37' W 000°48'813.4
2019-Jan-18 21:53N 50°36' W 000°35'1813.7
2019-Jan-18 20:32N 50°32' W 000°06'3713.7
2019-Jan-18 17:49N 50°45' E 000°49'914.3
2019-Jan-18 17:10N 50°50' E 001°01'214.9
2019-Jan-18 17:00N 50°52' E 001°04'815.4
2019-Jan-18 16:28N 50°57' E 001°14'716.1
2019-Jan-18 16:00N 51°02' E 001°23'816.0
2019-Jan-18 15:30N 51°07' E 001°33'815.5
2019-Jan-18 15:01N 51°11' E 001°43'815.0
2019-Jan-18 14:30N 51°17' E 001°50'714.5
2019-Jan-18 14:00N 51°23' E 001°57'612.1
2019-Jan-18 13:30N 51°24' E 002°07'715.0
2019-Jan-18 13:00N 51°21' E 002°18'713.7
2019-Jan-18 12:28N 51°23' E 002°30'613.5
2019-Jan-18 11:59N 51°23' E 002°40'612.8
2019-Jan-18 11:31N 51°22' E 002°50'713.1
2019-Jan-18 11:01N 51°24' E 002°60'611.8
2019-Jan-18 10:31N 51°23' E 003°09'2 3.4
2019-Jan-18 09:53N 51°21' E 003°11'0 0.0
2019-Jan-18 08:34N 51°21' E 003°11'0 0.0
2019-Jan-18 07:52N 51°21' E 003°11'0 0.0
2019-Jan-18 07:16N 51°21' E 003°11'0 0.0
2019-Jan-18 06:46N 51°21' E 003°11'0 0.0
2019-Jan-18 06:28N 51°21' E 003°11'0 0.0
2019-Jan-18 05:58N 51°21' E 003°11'0 0.0
2019-Jan-18 05:28N 51°21' E 003°11'0 0.0
2019-Jan-18 04:58N 51°21' E 003°11'0 0.0
2019-Jan-18 04:28N 51°21' E 003°11'0 0.0
2019-Jan-18 03:58N 51°21' E 003°11'0 0.0
2019-Jan-18 03:25N 51°21' E 003°11'0 0.0
2019-Jan-18 02:58N 51°21' E 003°11'0 0.0
2019-Jan-18 02:25N 51°21' E 003°11'0 0.0
2019-Jan-18 01:58N 51°21' E 003°11'0 0.0
2019-Jan-18 01:25N 51°21' E 003°11'0 0.0
2019-Jan-18 00:58N 51°21' E 003°11'0 0.0
2019-Jan-18 00:28N 51°21' E 003°11'0 0.0
2019-Jan-17 23:58N 51°21' E 003°11'0 0.0
2019-Jan-17 23:25N 51°21' E 003°11'0 0.0
2019-Jan-17 22:58N 51°21' E 003°11'0 0.0
2019-Jan-17 22:28N 51°21' E 003°11'0 0.0
2019-Jan-17 21:58N 51°21' E 003°11'0 0.0
2019-Jan-17 21:25N 51°21' E 003°11'0 0.0
2019-Jan-17 20:58N 51°21' E 003°11'0 0.0
2019-Jan-17 20:28N 51°21' E 003°11'0 0.0
2019-Jan-17 19:58N 51°21' E 003°11'0 0.0
2019-Jan-17 19:19N 51°21' E 003°11'0 0.0
2019-Jan-17 18:55N 51°21' E 003°11'0 0.0
2019-Jan-17 18:28N 51°21' E 003°11'0 0.0
2019-Jan-17 17:58N 51°21' E 003°11'0 0.0
2019-Jan-17 17:25N 51°21' E 003°11'0 0.0
2019-Jan-17 16:52N 51°21' E 003°11'0 0.0
2019-Jan-17 16:28N 51°21' E 003°11'0 0.0
2019-Jan-17 15:58N 51°21' E 003°11'0 0.0
2019-Jan-17 15:28N 51°21' E 003°11'0 0.0
2019-Jan-17 14:55N 51°21' E 003°11'0 0.0
2019-Jan-17 14:28N 51°21' E 003°11'0 0.0
2019-Jan-17 13:58N 51°21' E 003°11'0 0.0
2019-Jan-17 13:25N 51°21' E 003°11'0 0.0
2019-Jan-17 12:52N 51°21' E 003°11'0 0.0
2019-Jan-17 12:25N 51°21' E 003°11'0 0.0
2019-Jan-17 11:55N 51°21' E 003°11'0 0.0
2019-Jan-17 09:19N 51°21' E 003°11'0 0.0
2019-Jan-17 08:58N 51°21' E 003°11'0 0.0
2019-Jan-17 08:28N 51°21' E 003°11'0 0.0
2019-Jan-17 07:16N 51°21' E 003°11'0 0.0
2019-Jan-17 06:52N 51°21' E 003°11'0 0.0
2019-Jan-17 06:22N 51°21' E 003°11'0 0.0
2019-Jan-17 05:55N 51°21' E 003°11'0 0.0
2019-Jan-17 05:31N 51°21' E 003°11'0 0.0
2019-Jan-17 05:01N 51°21' E 003°11'0 0.0
2019-Jan-17 04:30N 51°21' E 003°11'0 0.0
2019-Jan-17 04:00N 51°21' E 003°11'0 0.0
2019-Jan-17 03:00N 51°21' E 003°11'0 0.0
2019-Jan-17 02:27N 51°21' E 003°11'0 0.0
2019-Jan-17 02:00N 51°21' E 003°11'0 0.0
2019-Jan-17 01:30N 51°21' E 003°11'0 0.0
2019-Jan-17 00:57N 51°21' E 003°11'0 0.0
2019-Jan-17 00:30N 51°21' E 003°11'0 0.0
2019-Jan-17 00:00N 51°21' E 003°11'0 0.0
2019-Jan-16 23:30N 51°21' E 003°11'0 0.0
2019-Jan-16 22:51N 51°21' E 003°11'0 0.0
2019-Jan-16 22:30N 51°21' E 003°11'0 0.0
2019-Jan-16 21:54N 51°21' E 003°11'0 0.0
2019-Jan-16 21:30N 51°21' E 003°11'0 0.0
2019-Jan-16 21:00N 51°21' E 003°11'0 0.0
2019-Jan-16 20:30N 51°21' E 003°11'0 0.0
2019-Jan-16 19:57N 51°21' E 003°11'0 0.0
2019-Jan-16 19:30N 51°21' E 003°11'0 0.0
2019-Jan-16 18:57N 51°21' E 003°11'0 0.0
2019-Jan-16 18:30N 51°21' E 003°11'0 0.0
2019-Jan-16 17:57N 51°21' E 003°11'0 0.0
2019-Jan-16 17:30N 51°21' E 003°11'0 0.0
2019-Jan-16 17:00N 51°21' E 003°11'0 0.0
2019-Jan-16 16:30N 51°21' E 003°11'0 0.0
2019-Jan-16 16:00N 51°21' E 003°11'0 0.0
2019-Jan-16 15:24N 51°21' E 003°11'0 0.0
2019-Jan-16 14:57N 51°21' E 003°11'0 0.0
2019-Jan-16 14:21N 51°21' E 003°11'0 0.0
2019-Jan-16 14:00N 51°21' E 003°11'0 0.0
2019-Jan-16 13:30N 51°21' E 003°11'0 0.0
2019-Jan-16 13:00N 51°21' E 003°11'0 0.0
2019-Jan-16 12:21N 51°21' E 003°11'0 0.0
2019-Jan-16 11:48N 51°21' E 003°11'0 0.0
2019-Jan-16 11:24N 51°21' E 003°11'0 0.0
2019-Jan-16 10:39N 51°21' E 003°11'0 0.0
2019-Jan-16 10:09N 51°21' E 003°11'0 0.0
2019-Jan-16 09:54N 51°21' E 003°11'0 0.0
2019-Jan-16 09:30N 51°21' E 003°11'0 0.0
2019-Jan-16 08:39N 51°21' E 003°11'0 0.0
2019-Jan-16 08:18N 51°21' E 003°11'0 0.0
2019-Jan-16 07:57N 51°21' E 003°11'0 0.0
2019-Jan-16 07:24N 51°21' E 003°11'0 0.0
2019-Jan-16 03:15N 51°21' E 003°11'0 0.0
2019-Jan-16 01:12N 51°21' E 003°11'0 0.0
2019-Jan-16 00:51N 51°21' E 003°11'0 0.0
2019-Jan-15 23:51N 51°21' E 003°11'0 0.0
2019-Jan-15 18:36N 51°21' E 003°11'0 0.0
2019-Jan-15 18:24N 51°21' E 003°11'0 0.0
2019-Jan-15 17:48N 51°21' E 003°11'0 0.0
2019-Jan-15 17:23N 51°21' E 003°11'0 0.0
2019-Jan-15 13:23N 51°21' E 003°11'0 0.0
2019-Jan-15 12:38N 51°21' E 003°11'0 0.0
2019-Jan-15 12:05N 51°21' E 003°11'0 0.0
2019-Jan-15 11:56N 51°21' E 003°11'0 0.0
2019-Jan-15 11:23N 51°21' E 003°11'0 0.0
2019-Jan-15 10:59N 51°21' E 003°11'0 0.0
2019-Jan-15 10:14N 51°21' E 003°11'0 0.0
2019-Jan-15 09:59N 51°21' E 003°11'0 0.1
2019-Jan-15 07:13N 51°21' E 003°11'0 2.0
2019-Jan-15 07:00N 51°22' E 003°12'4 8.6
2019-Jan-15 06:30N 51°24' E 003°06'714.2
2019-Jan-15 06:01N 51°22' E 002°55'713.3
2019-Jan-15 05:30N 51°22' E 002°44'510.0
2019-Jan-15 04:59N 51°22' E 002°36'612.8
2019-Jan-15 04:31N 51°21' E 002°26'714.2
2019-Jan-15 04:00N 51°17' E 002°17'714.5
2019-Jan-15 03:30N 51°13' E 002°07'714.4
2019-Jan-15 03:00N 51°10' E 001°57'714.1
2019-Jan-15 02:30N 51°06' E 001°47'713.7
2019-Jan-15 02:00N 51°02' E 001°38'713.4
2019-Jan-15 01:30N 50°57' E 001°31'713.1
2019-Jan-15 01:00N 50°51' E 001°27'713.0
2019-Jan-15 00:30N 50°45' E 001°24'713.2
2019-Jan-15 00:00N 50°40' E 001°17'714.0
2019-Jan-14 23:30N 50°35' E 001°09'714.0
2019-Jan-14 22:59N 50°30' E 000°60'714.2
2019-Jan-14 22:29N 50°28' E 000°49'814.5
2019-Jan-14 21:57N 50°26' E 000°37'1214.3
2019-Jan-14 21:07N 50°23' E 000°19'514.2
2019-Jan-14 20:46N 50°22' E 000°12'1814.1
2019-Jan-14 19:28N 50°17' W 000°16'813.6
2019-Jan-14 18:53N 50°15' W 000°28'3213.6
2019-Jan-14 16:31N 50°06' W 001°16'013.3
2019-Jan-14 16:30N 50°06' W 001°16'813.8
2019-Jan-14 15:55N 50°04' W 001°29'614.0
2019-Jan-14 15:30N 50°03' W 001°37'714.1
2019-Jan-14 15:00N 50°01' W 001°48'713.9
2019-Jan-14 14:30N 49°59' W 001°58'814.0
2019-Jan-14 13:57N 49°58' W 002°10'1114.1
2019-Jan-14 13:10N 49°55' W 002°27'1114.2
2019-Jan-14 12:25N 49°52' W 002°43'614.1
2019-Jan-14 12:00N 49°50' W 002°51'713.1
2019-Jan-14 11:29N 49°48' W 003°01'713.5
2019-Jan-14 11:01N 49°45' W 003°10'713.8
2019-Jan-14 10:31N 49°42' W 003°19'713.7
2019-Jan-14 10:00N 49°40' W 003°29'714.1
2019-Jan-14 09:30N 49°39' W 003°40'714.1
2019-Jan-14 09:00N 49°39' W 003°51'714.1
2019-Jan-14 08:31N 49°39' W 004°02'714.1
2019-Jan-14 08:00N 49°37' W 004°12'914.1
2019-Jan-14 07:24N 49°34' W 004°25'614.1
2019-Jan-14 06:57N 49°32' W 004°34'614.2
2019-Jan-14 06:30N 49°30' W 004°44'1014.1
2019-Jan-14 05:48N 49°28' W 004°59'914.0
2019-Jan-14 05:09N 49°25' W 005°11'213.9
2019-Jan-14 04:59N 49°24' W 005°15'713.9
2019-Jan-14 04:29N 49°22' W 005°25'713.8
2019-Jan-14 03:58N 49°19' W 005°35'713.4
2019-Jan-14 03:29N 49°17' W 005°44'22114.3
2019-Jan-13 12:00N 47°54' W 010°54'17714.7 300 / 151032.3 5.4 12.410.6
2019-Jan-13 00:00N 46°54' W 015°00'13314.8 280 / 51038.1 5.4 11.8 8.5
2019-Jan-12 15:00N 46°06' W 018°00'4515.1 070 / 11039.110.8 13.2 9.2
2019-Jan-12 12:00N 45°48' W 019°00'12914.3 100 / 101040.410.8 12.0 8.7
2019-Jan-12 03:00N 44°48' W 021°42'   080 / 171037.010.8 14.2 8.8
Track history (hours):
 
Tides and Currents Weather Stations Pressure Air Temp Water Temp Dewpoint Dewpoint Depression Visibility Wind Speed Wind Dir Waves Ship Positions

Spuigracht

Last reported at 2019-Jan-22 03:00 UTC. Time now 2019-Jan-22 07:08 UTC.
Position N 44°54' W 017°36'.

Length 173 m; beam 26 m.

Type: Pleasure craft. MMSI: 244444108.

Wind from 330 at 18 knots

Barometer 1028.6 mb
Air temperature 11.9 ° C
Visibility: greater than 10.8 NM
Dewpoint 7.8 ° C

Date/timePositionNaut miles runAvg speedWind from/ knotsBaromVisibWave heightAir tempDewpointWater temp
2019-Jan-22 03:00N 44°54' W 017°36'18315.3 330 / 181028.610.8 11.9 7.8
2019-Jan-21 15:00N 46°24' W 013°48'4113.8 270 / 251025.410.8 12.8 7.3
2019-Jan-21 12:00N 46°42' W 012°54'13314.7 240 / 131027.210.8 11.8 8.1
2019-Jan-21 03:00N 47°42' W 010°00'4414.7 330 / 81028.110.8 10.9 6.2
2019-Jan-21 00:00N 48°00' W 009°00'13014.4 360 / 211028.0 5.4 11.0 8.4
2019-Jan-20 15:00N 49°00' W 006°06'10215.5 360 / 171020.010.8 11.1 7.7
2019-Jan-20 08:26N 49°47' W 003°47'716.2
2019-Jan-20 07:59N 49°49' W 003°36'815.7
2019-Jan-20 07:31N 49°51' W 003°25'815.1
2019-Jan-20 07:01N 49°54' W 003°14'714.1
2019-Jan-20 06:29N 49°57' W 003°04'713.7
2019-Jan-20 06:00N 49°59' W 002°54'713.7
2019-Jan-20 05:28N 50°02' W 002°43'2514.4
2019-Jan-20 03:45N 50°10' W 002°07'415.7
2019-Jan-20 03:31N 50°12' W 002°02'816.2
2019-Jan-20 03:00N 50°15' W 001°50'816.8
2019-Jan-20 02:31N 50°20' W 001°39'2817.8
2019-Jan-20 00:55N 50°34' W 001°00'716.4
2019-Jan-20 00:30N 50°40' W 000°58'611.7
2019-Jan-20 00:01N 50°44' W 001°05'713.1
2019-Jan-19 23:30N 50°46' W 001°15'5 9.5
2019-Jan-19 23:00N 50°50' W 001°19'510.4
2019-Jan-19 22:31N 50°54' W 001°25'1 1.5
2019-Jan-19 21:57N 50°54' W 001°26'0 0.0
2019-Jan-19 21:27N 50°54' W 001°26'0 0.0
2019-Jan-19 17:11N 50°54' W 001°26'0 0.0
2019-Jan-19 15:20N 50°54' W 001°26'0 0.0
2019-Jan-19 07:41N 50°54' W 001°26'0 0.0
2019-Jan-19 06:38N 50°54' W 001°26'0 0.0
2019-Jan-19 02:38N 50°54' W 001°26'0 0.0
2019-Jan-19 02:02N 50°54' W 001°26'0 0.0
2019-Jan-19 01:52N 50°54' W 001°26'1 2.7
2019-Jan-19 01:30N 50°54' W 001°25'4 7.8
2019-Jan-19 01:00N 50°51' W 001°20'4 9.0
2019-Jan-19 00:30N 50°47' W 001°18'815.7
2019-Jan-19 00:00N 50°45' W 001°06'713.9
2019-Jan-18 23:31N 50°40' W 000°58'3 6.6
2019-Jan-18 23:00N 50°38' W 000°55'4 8.6
2019-Jan-18 22:31N 50°37' W 000°48'813.4
2019-Jan-18 21:53N 50°36' W 000°35'1813.7
2019-Jan-18 20:32N 50°32' W 000°06'3713.7
2019-Jan-18 17:49N 50°45' E 000°49'914.3
2019-Jan-18 17:10N 50°50' E 001°01'214.9
2019-Jan-18 17:00N 50°52' E 001°04'815.4
2019-Jan-18 16:28N 50°57' E 001°14'716.1
2019-Jan-18 16:00N 51°02' E 001°23'816.0
2019-Jan-18 15:30N 51°07' E 001°33'815.5
2019-Jan-18 15:01N 51°11' E 001°43'815.0
2019-Jan-18 14:30N 51°17' E 001°50'714.5
2019-Jan-18 14:00N 51°23' E 001°57'612.1
2019-Jan-18 13:30N 51°24' E 002°07'715.0
2019-Jan-18 13:00N 51°21' E 002°18'713.7
2019-Jan-18 12:28N 51°23' E 002°30'613.5
2019-Jan-18 11:59N 51°23' E 002°40'612.8
2019-Jan-18 11:31N 51°22' E 002°50'713.1
2019-Jan-18 11:01N 51°24' E 002°60'611.8
2019-Jan-18 10:31N 51°23' E 003°09'2 3.4
2019-Jan-18 09:53N 51°21' E 003°11'0 0.0
2019-Jan-18 08:34N 51°21' E 003°11'0 0.0
2019-Jan-18 07:52N 51°21' E 003°11'0 0.0
2019-Jan-18 07:16N 51°21' E 003°11'0 0.0
2019-Jan-18 06:46N 51°21' E 003°11'0 0.0
2019-Jan-18 06:28N 51°21' E 003°11'0 0.0
2019-Jan-18 05:58N 51°21' E 003°11'0 0.0
2019-Jan-18 05:28N 51°21' E 003°11'0 0.0
2019-Jan-18 04:58N 51°21' E 003°11'0 0.0
2019-Jan-18 04:28N 51°21' E 003°11'0 0.0
2019-Jan-18 03:58N 51°21' E 003°11'0 0.0
2019-Jan-18 03:25N 51°21' E 003°11'0 0.0
2019-Jan-18 02:58N 51°21' E 003°11'0 0.0
2019-Jan-18 02:25N 51°21' E 003°11'0 0.0
2019-Jan-18 01:58N 51°21' E 003°11'0 0.0
2019-Jan-18 01:25N 51°21' E 003°11'0 0.0
2019-Jan-18 00:58N 51°21' E 003°11'0 0.0
2019-Jan-18 00:28N 51°21' E 003°11'0 0.0
2019-Jan-17 23:58N 51°21' E 003°11'0 0.0
2019-Jan-17 23:25N 51°21' E 003°11'0 0.0
2019-Jan-17 22:58N 51°21' E 003°11'0 0.0
2019-Jan-17 22:28N 51°21' E 003°11'0 0.0
2019-Jan-17 21:58N 51°21' E 003°11'0 0.0
2019-Jan-17 21:25N 51°21' E 003°11'0 0.0
2019-Jan-17 20:58N 51°21' E 003°11'0 0.0
2019-Jan-17 20:28N 51°21' E 003°11'0 0.0
2019-Jan-17 19:58N 51°21' E 003°11'0 0.0
2019-Jan-17 19:19N 51°21' E 003°11'0 0.0
2019-Jan-17 18:55N 51°21' E 003°11'0 0.0
2019-Jan-17 18:28N 51°21' E 003°11'0 0.0
2019-Jan-17 17:58N 51°21' E 003°11'0 0.0
2019-Jan-17 17:25N 51°21' E 003°11'0 0.0
2019-Jan-17 16:52N 51°21' E 003°11'0 0.0
2019-Jan-17 16:28N 51°21' E 003°11'0 0.0
2019-Jan-17 15:58N 51°21' E 003°11'0 0.0
2019-Jan-17 15:28N 51°21' E 003°11'0 0.0
2019-Jan-17 14:55N 51°21' E 003°11'0 0.0
2019-Jan-17 14:28N 51°21' E 003°11'0 0.0
2019-Jan-17 13:58N 51°21' E 003°11'0 0.0
2019-Jan-17 13:25N 51°21' E 003°11'0 0.0
2019-Jan-17 12:52N 51°21' E 003°11'0 0.0
2019-Jan-17 12:25N 51°21' E 003°11'0 0.0
2019-Jan-17 11:55N 51°21' E 003°11'0 0.0
2019-Jan-17 09:19N 51°21' E 003°11'0 0.0
2019-Jan-17 08:58N 51°21' E 003°11'0 0.0
2019-Jan-17 08:28N 51°21' E 003°11'0 0.0
2019-Jan-17 07:16N 51°21' E 003°11'0 0.0
2019-Jan-17 06:52N 51°21' E 003°11'0 0.0
2019-Jan-17 06:22N 51°21' E 003°11'0 0.0
2019-Jan-17 05:55N 51°21' E 003°11'0 0.0
2019-Jan-17 05:31N 51°21' E 003°11'0 0.0
2019-Jan-17 05:01N 51°21' E 003°11'0 0.0
2019-Jan-17 04:30N 51°21' E 003°11'0 0.0
2019-Jan-17 04:00N 51°21' E 003°11'0 0.0
2019-Jan-17 03:00N 51°21' E 003°11'0 0.0
2019-Jan-17 02:27N 51°21' E 003°11'0 0.0
2019-Jan-17 02:00N 51°21' E 003°11'0 0.0
2019-Jan-17 01:30N 51°21' E 003°11'0 0.0
2019-Jan-17 00:57N 51°21' E 003°11'0 0.0
2019-Jan-17 00:30N 51°21' E 003°11'0 0.0
2019-Jan-17 00:00N 51°21' E 003°11'0 0.0
2019-Jan-16 23:30N 51°21' E 003°11'0 0.0
2019-Jan-16 22:51N 51°21' E 003°11'0 0.0
2019-Jan-16 22:30N 51°21' E 003°11'0 0.0
2019-Jan-16 21:54N 51°21' E 003°11'0 0.0
2019-Jan-16 21:30N 51°21' E 003°11'0 0.0
2019-Jan-16 21:00N 51°21' E 003°11'0 0.0
2019-Jan-16 20:30N 51°21' E 003°11'0 0.0
2019-Jan-16 19:57N 51°21' E 003°11'0 0.0
2019-Jan-16 19:30N 51°21' E 003°11'0 0.0
2019-Jan-16 18:57N 51°21' E 003°11'0 0.0
2019-Jan-16 18:30N 51°21' E 003°11'0 0.0
2019-Jan-16 17:57N 51°21' E 003°11'0 0.0
2019-Jan-16 17:30N 51°21' E 003°11'0 0.0
2019-Jan-16 17:00N 51°21' E 003°11'0 0.0
2019-Jan-16 16:30N 51°21' E 003°11'0 0.0
2019-Jan-16 16:00N 51°21' E 003°11'0 0.0
2019-Jan-16 15:24N 51°21' E 003°11'0 0.0
2019-Jan-16 14:57N 51°21' E 003°11'0 0.0
2019-Jan-16 14:21N 51°21' E 003°11'0 0.0
2019-Jan-16 14:00N 51°21' E 003°11'0 0.0
2019-Jan-16 13:30N 51°21' E 003°11'0 0.0
2019-Jan-16 13:00N 51°21' E 003°11'0 0.0
2019-Jan-16 12:21N 51°21' E 003°11'0 0.0
2019-Jan-16 11:48N 51°21' E 003°11'0 0.0
2019-Jan-16 11:24N 51°21' E 003°11'0 0.0
2019-Jan-16 10:39N 51°21' E 003°11'0 0.0
2019-Jan-16 10:09N 51°21' E 003°11'0 0.0
2019-Jan-16 09:54N 51°21' E 003°11'0 0.0
2019-Jan-16 09:30N 51°21' E 003°11'0 0.0
2019-Jan-16 08:39N 51°21' E 003°11'0 0.0
2019-Jan-16 08:18N 51°21' E 003°11'0 0.0
2019-Jan-16 07:57N 51°21' E 003°11'0 0.0
2019-Jan-16 07:24N 51°21' E 003°11'0 0.0
2019-Jan-16 03:15N 51°21' E 003°11'0 0.0
2019-Jan-16 01:12N 51°21' E 003°11'0 0.0
2019-Jan-16 00:51N 51°21' E 003°11'0 0.0
2019-Jan-15 23:51N 51°21' E 003°11'0 0.0
2019-Jan-15 18:36N 51°21' E 003°11'0 0.0
2019-Jan-15 18:24N 51°21' E 003°11'0 0.0
2019-Jan-15 17:48N 51°21' E 003°11'0 0.0
2019-Jan-15 17:23N 51°21' E 003°11'0 0.0
2019-Jan-15 13:23N 51°21' E 003°11'0 0.0
2019-Jan-15 12:38N 51°21' E 003°11'0 0.0
2019-Jan-15 12:05N 51°21' E 003°11'0 0.0
2019-Jan-15 11:56N 51°21' E 003°11'0 0.0
2019-Jan-15 11:23N 51°21' E 003°11'0 0.0
2019-Jan-15 10:59N 51°21' E 003°11'0 0.0
2019-Jan-15 10:14N 51°21' E 003°11'0 0.0
2019-Jan-15 09:59N 51°21' E 003°11'0 0.1
2019-Jan-15 07:13N 51°21' E 003°11'0 2.0
2019-Jan-15 07:00N 51°22' E 003°12'4 8.6
2019-Jan-15 06:30N 51°24' E 003°06'714.2
2019-Jan-15 06:01N 51°22' E 002°55'713.3
2019-Jan-15 05:30N 51°22' E 002°44'510.0
2019-Jan-15 04:59N 51°22' E 002°36'612.8
2019-Jan-15 04:31N 51°21' E 002°26'714.2
2019-Jan-15 04:00N 51°17' E 002°17'714.5
2019-Jan-15 03:30N 51°13' E 002°07'714.4
2019-Jan-15 03:00N 51°10' E 001°57'714.1
2019-Jan-15 02:30N 51°06' E 001°47'713.7
2019-Jan-15 02:00N 51°02' E 001°38'713.4
2019-Jan-15 01:30N 50°57' E 001°31'713.1
2019-Jan-15 01:00N 50°51' E 001°27'713.0
2019-Jan-15 00:30N 50°45' E 001°24'713.2
2019-Jan-15 00:00N 50°40' E 001°17'714.0
2019-Jan-14 23:30N 50°35' E 001°09'714.0
2019-Jan-14 22:59N 50°30' E 000°60'714.2
2019-Jan-14 22:29N 50°28' E 000°49'814.5
2019-Jan-14 21:57N 50°26' E 000°37'1214.3
2019-Jan-14 21:07N 50°23' E 000°19'514.2
2019-Jan-14 20:46N 50°22' E 000°12'1814.1
2019-Jan-14 19:28N 50°17' W 000°16'813.6
2019-Jan-14 18:53N 50°15' W 000°28'3213.6
2019-Jan-14 16:31N 50°06' W 001°16'013.3
2019-Jan-14 16:30N 50°06' W 001°16'813.8
2019-Jan-14 15:55N 50°04' W 001°29'614.0
2019-Jan-14 15:30N 50°03' W 001°37'714.1
2019-Jan-14 15:00N 50°01' W 001°48'713.9
2019-Jan-14 14:30N 49°59' W 001°58'814.0
2019-Jan-14 13:57N 49°58' W 002°10'1114.1
2019-Jan-14 13:10N 49°55' W 002°27'1114.2
2019-Jan-14 12:25N 49°52' W 002°43'614.1
2019-Jan-14 12:00N 49°50' W 002°51'713.1
2019-Jan-14 11:29N 49°48' W 003°01'713.5
2019-Jan-14 11:01N 49°45' W 003°10'713.8
2019-Jan-14 10:31N 49°42' W 003°19'713.7
2019-Jan-14 10:00N 49°40' W 003°29'714.1
2019-Jan-14 09:30N 49°39' W 003°40'714.1
2019-Jan-14 09:00N 49°39' W 003°51'714.1
2019-Jan-14 08:31N 49°39' W 004°02'714.1
2019-Jan-14 08:00N 49°37' W 004°12'914.1
2019-Jan-14 07:24N 49°34' W 004°25'614.1
2019-Jan-14 06:57N 49°32' W 004°34'614.2
2019-Jan-14 06:30N 49°30' W 004°44'1014.1
2019-Jan-14 05:48N 49°28' W 004°59'914.0
2019-Jan-14 05:09N 49°25' W 005°11'213.9
2019-Jan-14 04:59N 49°24' W 005°15'713.9
2019-Jan-14 04:29N 49°22' W 005°25'713.8
2019-Jan-14 03:58N 49°19' W 005°35'713.4
2019-Jan-14 03:29N 49°17' W 005°44'22114.3
2019-Jan-13 12:00N 47°54' W 010°54'17714.7 300 / 151032.3 5.4 12.410.6
2019-Jan-13 00:00N 46°54' W 015°00'13314.8 280 / 51038.1 5.4 11.8 8.5
2019-Jan-12 15:00N 46°06' W 018°00'4515.1 070 / 11039.110.8 13.2 9.2
2019-Jan-12 12:00N 45°48' W 019°00'12914.3 100 / 101040.410.8 12.0 8.7
2019-Jan-12 03:00N 44°48' W 021°42'   080 / 171037.010.8 14.2 8.8

Dump ship's entire track history